sensor_id;sensor_type;location;lat;lon;timestamp;pressure;altitude;pressure_sealevel;temperature;humidity
55470;BME280;41334;47.872;16.384;2023-05-20T00:01:08;99536.06;;;12.03;83.84
55470;BME280;41334;47.872;16.384;2023-05-20T00:06:10;99526.13;;;12.02;84.72
55470;BME280;41334;47.872;16.384;2023-05-20T00:11:12;99525.91;;;11.85;83.99
55470;BME280;41334;47.872;16.384;2023-05-20T00:16:14;99532.00;;;11.68;84.44
55470;BME280;41334;47.872;16.384;2023-05-20T00:21:16;99526.97;;;11.57;83.59
55470;BME280;41334;47.872;16.384;2023-05-20T00:26:18;99531.13;;;11.54;85.45
55470;BME280;41334;47.872;16.384;2023-05-20T00:31:25;99538.72;;;11.48;85.23
55470;BME280;41334;47.872;16.384;2023-05-20T00:36:27;99529.81;;;11.51;84.83
55470;BME280;41334;47.872;16.384;2023-05-20T00:41:29;99519.25;;;11.53;85.89
55470;BME280;41334;47.872;16.384;2023-05-20T00:46:32;99508.91;;;11.45;86.70
55470;BME280;41334;47.872;16.384;2023-05-20T00:51:34;99511.53;;;11.37;86.38
55470;BME280;41334;47.872;16.384;2023-05-20T00:56:36;99506.00;;;11.37;85.46
55470;BME280;41334;47.872;16.384;2023-05-20T01:01:41;99507.88;;;11.41;84.85
55470;BME280;41334;47.872;16.384;2023-05-20T01:06:44;99511.34;;;11.47;84.66
55470;BME280;41334;47.872;16.384;2023-05-20T01:11:50;99505.38;;;11.40;85.46
55470;BME280;41334;47.872;16.384;2023-05-20T01:16:57;99492.56;;;11.30;84.90
55470;BME280;41334;47.872;16.384;2023-05-20T01:22:05;99488.84;;;11.21;84.81
55470;BME280;41334;47.872;16.384;2023-05-20T01:27:11;99476.75;;;11.17;84.79
55470;BME280;41334;47.872;16.384;2023-05-20T01:32:20;99487.22;;;11.20;84.81
55470;BME280;41334;47.872;16.384;2023-05-20T01:37:23;99488.13;;;11.15;85.16
55470;BME280;41334;47.872;16.384;2023-05-20T01:42:27;99471.91;;;11.09;84.79
55470;BME280;41334;47.872;16.384;2023-05-20T01:47:30;99469.91;;;10.95;86.02
55470;BME280;41334;47.872;16.384;2023-05-20T01:52:32;99475.09;;;10.83;86.01
55470;BME280;41334;47.872;16.384;2023-05-20T01:57:34;99477.41;;;10.76;86.08
55470;BME280;41334;47.872;16.384;2023-05-20T02:02:38;99465.16;;;10.63;86.26
55470;BME280;41334;47.872;16.384;2023-05-20T02:07:43;99475.97;;;10.60;88.15
55470;BME280;41334;47.872;16.384;2023-05-20T02:12:44;99474.63;;;10.57;87.37
55470;BME280;41334;47.872;16.384;2023-05-20T02:17:48;99482.41;;;10.74;86.68
55470;BME280;41334;47.872;16.384;2023-05-20T02:22:50;99485.16;;;10.93;85.67
55470;BME280;41334;47.872;16.384;2023-05-20T02:27:52;99478.13;;;11.00;85.81
55470;BME280;41334;47.872;16.384;2023-05-20T02:32:54;99475.91;;;11.02;86.21
55470;BME280;41334;47.872;16.384;2023-05-20T02:37:56;99475.00;;;10.88;86.52
55470;BME280;41334;47.872;16.384;2023-05-20T02:42:59;99468.91;;;10.72;87.01
55470;BME280;41334;47.872;16.384;2023-05-20T02:48:02;99476.94;;;10.69;87.93
55470;BME280;41334;47.872;16.384;2023-05-20T02:53:05;99496.38;;;10.83;87.67
55470;BME280;41334;47.872;16.384;2023-05-20T02:58:07;99487.31;;;10.96;87.23
55470;BME280;41334;47.872;16.384;2023-05-20T03:03:09;99495.91;;;10.94;87.52
55470;BME280;41334;47.872;16.384;2023-05-20T03:08:11;99496.41;;;10.96;86.68
55470;BME280;41334;47.872;16.384;2023-05-20T03:13:13;99505.84;;;10.95;87.15
55470;BME280;41334;47.872;16.384;2023-05-20T03:18:15;99508.47;;;10.87;87.97
55470;BME280;41334;47.872;16.384;2023-05-20T03:23:18;99504.59;;;10.88;88.46
55470;BME280;41334;47.872;16.384;2023-05-20T03:28:20;99499.94;;;10.83;87.15
55470;BME280;41334;47.872;16.384;2023-05-20T03:33:23;99499.56;;;10.90;86.20
55470;BME280;41334;47.872;16.384;2023-05-20T03:38:27;99508.22;;;11.02;85.43
55470;BME280;41334;47.872;16.384;2023-05-20T03:43:29;99509.34;;;11.01;86.03
55470;BME280;41334;47.872;16.384;2023-05-20T03:48:32;99502.19;;;11.00;85.56
55470;BME280;41334;47.872;16.384;2023-05-20T03:53:34;99486.63;;;11.04;84.42
55470;BME280;41334;47.872;16.384;2023-05-20T03:58:36;99502.25;;;10.95;87.30
55470;BME280;41334;47.872;16.384;2023-05-20T04:03:40;99503.47;;;10.89;87.02
55470;BME280;41334;47.872;16.384;2023-05-20T04:08:45;99498.00;;;11.02;85.96
55470;BME280;41334;47.872;16.384;2023-05-20T04:13:47;99511.31;;;11.33;84.85
55470;BME280;41334;47.872;16.384;2023-05-20T04:18:49;99521.09;;;12.18;81.26
55470;BME280;41334;47.872;16.384;2023-05-20T04:23:51;99538.16;;;12.89;78.52
55470;BME280;41334;47.872;16.384;2023-05-20T04:28:54;99530.84;;;12.93;76.15
55470;BME280;41334;47.872;16.384;2023-05-20T04:34:00;99540.16;;;12.61;79.39
55470;BME280;41334;47.872;16.384;2023-05-20T04:39:03;99547.78;;;12.42;80.25
55470;BME280;41334;47.872;16.384;2023-05-20T04:44:09;99544.91;;;12.47;80.97
55470;BME280;41334;47.872;16.384;2023-05-20T04:49:11;99535.91;;;13.14;77.45
55470;BME280;41334;47.872;16.384;2023-05-20T04:54:13;99529.94;;;13.20;77.88
55470;BME280;41334;47.872;16.384;2023-05-20T04:59:15;99540.31;;;12.92;78.86
55470;BME280;41334;47.872;16.384;2023-05-20T05:04:18;99547.13;;;13.08;77.95
55470;BME280;41334;47.872;16.384;2023-05-20T05:09:20;99543.53;;;13.67;76.50
55470;BME280;41334;47.872;16.384;2023-05-20T05:14:23;99535.84;;;13.63;76.32
55470;BME280;41334;47.872;16.384;2023-05-20T05:19:24;99537.63;;;13.91;74.96
55470;BME280;41334;47.872;16.384;2023-05-20T05:24:27;99535.31;;;14.32;74.04
55470;BME280;41334;47.872;16.384;2023-05-20T05:29:29;99540.75;;;15.03;72.49
55470;BME280;41334;47.872;16.384;2023-05-20T05:34:30;99540.25;;;16.56;67.31
55470;BME280;41334;47.872;16.384;2023-05-20T05:39:33;99535.16;;;15.73;67.55
55470;BME280;41334;47.872;16.384;2023-05-20T05:44:38;99540.97;;;15.97;67.95
55470;BME280;41334;47.872;16.384;2023-05-20T05:49:42;99530.22;;;16.63;66.05
55470;BME280;41334;47.872;16.384;2023-05-20T05:54:44;99535.16;;;16.58;64.29
55470;BME280;41334;47.872;16.384;2023-05-20T05:59:46;99524.78;;;15.90;67.21
55470;BME280;41334;47.872;16.384;2023-05-20T06:04:48;99521.72;;;15.75;68.11
55470;BME280;41334;47.872;16.384;2023-05-20T06:15:28;99515.97;;;16.27;66.15
55470;BME280;41334;47.872;16.384;2023-05-20T06:20:30;99518.63;;;16.53;66.26
55470;BME280;41334;47.872;16.384;2023-05-20T06:25:32;99527.97;;;17.07;64.25
55470;BME280;41334;47.872;16.384;2023-05-20T06:30:35;99525.50;;;17.80;61.87
55470;BME280;41334;47.872;16.384;2023-05-20T06:35:46;99513.44;;;18.01;60.58
55470;BME280;41334;47.872;16.384;2023-05-20T06:40:50;99510.56;;;18.71;59.73
55470;BME280;41334;47.872;16.384;2023-05-20T06:45:52;99517.84;;;17.36;62.11
55470;BME280;41334;47.872;16.384;2023-05-20T06:51:24;99515.19;;;18.42;60.74
55470;BME280;41334;47.872;16.384;2023-05-20T06:56:26;99511.25;;;18.19;60.22
55470;BME280;41334;47.872;16.384;2023-05-20T07:01:28;99499.00;;;18.11;61.52
55470;BME280;41334;47.872;16.384;2023-05-20T07:06:30;99501.34;;;18.33;61.27
55470;BME280;41334;47.872;16.384;2023-05-20T07:11:33;99491.47;;;19.01;58.76
55470;BME280;41334;47.872;16.384;2023-05-20T07:16:35;99492.09;;;19.62;57.73
55470;BME280;41334;47.872;16.384;2023-05-20T07:21:37;99501.63;;;20.37;55.15
55470;BME280;41334;47.872;16.384;2023-05-20T07:26:51;99487.00;;;21.53;51.72
55470;BME280;41334;47.872;16.384;2023-05-20T07:31:53;99481.69;;;21.90;51.01
55470;BME280;41334;47.872;16.384;2023-05-20T07:36:56;99471.59;;;21.89;52.83
55470;BME280;41334;47.872;16.384;2023-05-20T07:41:58;99476.41;;;20.88;55.53
55470;BME280;41334;47.872;16.384;2023-05-20T07:47:01;99472.84;;;20.40;54.74
55470;BME280;41334;47.872;16.384;2023-05-20T07:52:04;99472.47;;;20.92;55.29
55470;BME280;41334;47.872;16.384;2023-05-20T07:57:06;99473.25;;;20.74;53.62
55470;BME280;41334;47.872;16.384;2023-05-20T08:02:08;99473.28;;;20.93;55.41
55470;BME280;41334;47.872;16.384;2023-05-20T08:07:10;99462.22;;;20.65;53.94
55470;BME280;41334;47.872;16.384;2023-05-20T08:12:24;99464.66;;;20.66;56.00
55470;BME280;41334;47.872;16.384;2023-05-20T08:17:26;99459.41;;;20.65;53.86
55470;BME280;41334;47.872;16.384;2023-05-20T08:22:28;99460.56;;;20.80;55.66
55470;BME280;41334;47.872;16.384;2023-05-20T08:27:30;99447.09;;;20.70;53.90
55470;BME280;41334;47.872;16.384;2023-05-20T08:32:32;99437.72;;;20.62;54.84
55470;BME280;41334;47.872;16.384;2023-05-20T08:37:34;99426.97;;;20.83;54.67
55470;BME280;41334;47.872;16.384;2023-05-20T08:42:40;99424.19;;;22.37;52.77
55470;BME280;41334;47.872;16.384;2023-05-20T08:47:43;99418.63;;;23.31;50.47
55470;BME280;41334;47.872;16.384;2023-05-20T08:52:46;99418.94;;;23.22;49.93
55470;BME280;41334;47.872;16.384;2023-05-20T08:57:50;99412.66;;;22.45;51.13
55470;BME280;41334;47.872;16.384;2023-05-20T09:02:52;99418.53;;;21.87;52.85
55470;BME280;41334;47.872;16.384;2023-05-20T09:08:05;99410.81;;;21.81;52.26
55470;BME280;41334;47.872;16.384;2023-05-20T09:13:09;99405.44;;;21.30;54.24
55470;BME280;41334;47.872;16.384;2023-05-20T09:18:12;99409.09;;;23.79;49.77
55470;BME280;41334;47.872;16.384;2023-05-20T09:23:14;99408.19;;;22.97;51.11
55470;BME280;41334;47.872;16.384;2023-05-20T09:28:16;99406.34;;;22.82;50.97
55470;BME280;41334;47.872;16.384;2023-05-20T09:33:19;99408.41;;;23.93;49.25
55470;BME280;41334;47.872;16.384;2023-05-20T09:38:22;99408.38;;;23.90;48.62
55470;BME280;41334;47.872;16.384;2023-05-20T09:43:24;99404.63;;;24.85;47.05
55470;BME280;41334;47.872;16.384;2023-05-20T09:48:26;99396.88;;;25.80;44.92
55470;BME280;41334;47.872;16.384;2023-05-20T09:53:28;99404.50;;;25.58;45.92
55470;BME280;41334;47.872;16.384;2023-05-20T09:58:32;99378.50;;;25.13;47.37
55470;BME280;41334;47.872;16.384;2023-05-20T10:03:35;99383.63;;;24.86;46.75
55470;BME280;41334;47.872;16.384;2023-05-20T10:19:04;99352.25;;;25.13;47.58
55470;BME280;41334;47.872;16.384;2023-05-20T10:24:10;99346.69;;;25.55;47.83
55470;BME280;41334;47.872;16.384;2023-05-20T10:29:18;99335.88;;;24.60;50.06
55470;BME280;41334;47.872;16.384;2023-05-20T10:34:21;99341.72;;;24.99;47.73
55470;BME280;41334;47.872;16.384;2023-05-20T10:39:27;99339.16;;;24.03;49.36
55470;BME280;41334;47.872;16.384;2023-05-20T10:44:40;99341.66;;;23.64;51.49
55470;BME280;41334;47.872;16.384;2023-05-20T10:49:45;99338.41;;;24.10;50.09
55470;BME280;41334;47.872;16.384;2023-05-20T10:54:58;99336.41;;;24.90;49.73
55470;BME280;41334;47.872;16.384;2023-05-20T11:00:04;99334.16;;;26.13;47.84
55470;BME280;41334;47.872;16.384;2023-05-20T11:05:10;99331.63;;;26.66;44.84
55470;BME280;41334;47.872;16.384;2023-05-20T11:10:12;99335.81;;;25.75;46.27
55470;BME280;41334;47.872;16.384;2023-05-20T11:15:14;99335.78;;;25.54;46.86
55470;BME280;41334;47.872;16.384;2023-05-20T11:20:16;99323.25;;;26.23;44.47
55470;BME280;41334;47.872;16.384;2023-05-20T11:25:19;99320.00;;;25.56;45.71
55470;BME280;41334;47.872;16.384;2023-05-20T11:30:21;99313.72;;;26.90;43.93
55470;BME280;41334;47.872;16.384;2023-05-20T11:35:25;99315.44;;;27.43;42.45
55470;BME280;41334;47.872;16.384;2023-05-20T11:40:28;99310.75;;;27.78;42.79
55470;BME280;41334;47.872;16.384;2023-05-20T11:45:44;99305.81;;;27.26;43.82
55470;BME280;41334;47.872;16.384;2023-05-20T11:50:47;99307.88;;;27.81;42.03
55470;BME280;41334;47.872;16.384;2023-05-20T11:55:56;99308.97;;;29.04;37.67
55470;BME280;41334;47.872;16.384;2023-05-20T12:00:58;99297.03;;;29.40;38.20
55470;BME280;41334;47.872;16.384;2023-05-20T12:06:20;99282.75;;;29.70;35.48
55470;BME280;41334;47.872;16.384;2023-05-20T12:11:21;99292.72;;;29.05;37.63
55470;BME280;41334;47.872;16.384;2023-05-20T12:16:23;99287.84;;;29.02;38.61
55470;BME280;41334;47.872;16.384;2023-05-20T12:21:27;99288.50;;;29.13;38.33
55470;BME280;41334;47.872;16.384;2023-05-20T12:26:29;99277.56;;;30.09;36.71
55470;BME280;41334;47.872;16.384;2023-05-20T12:31:32;99272.44;;;30.23;35.06
55470;BME280;41334;47.872;16.384;2023-05-20T12:36:35;99267.38;;;29.88;38.09
55470;BME280;41334;47.872;16.384;2023-05-20T12:41:39;99273.38;;;29.46;36.80
55470;BME280;41334;47.872;16.384;2023-05-20T12:46:43;99264.69;;;29.30;36.21
55470;BME280;41334;47.872;16.384;2023-05-20T12:51:44;99248.56;;;29.70;36.58
55470;BME280;41334;47.872;16.384;2023-05-20T12:56:46;99253.00;;;29.48;38.96
55470;BME280;41334;47.872;16.384;2023-05-20T13:01:49;99247.84;;;29.39;37.56
55470;BME280;41334;47.872;16.384;2023-05-20T13:06:51;99243.88;;;29.84;35.48
55470;BME280;41334;47.872;16.384;2023-05-20T13:11:52;99236.16;;;30.04;35.50
55470;BME280;41334;47.872;16.384;2023-05-20T13:16:54;99229.13;;;29.89;38.48
55470;BME280;41334;47.872;16.384;2023-05-20T13:21:56;99221.44;;;29.86;36.85
55470;BME280;41334;47.872;16.384;2023-05-20T13:26:58;99226.94;;;29.49;36.45
55470;BME280;41334;47.872;16.384;2023-05-20T13:32:02;99215.22;;;30.14;36.02
55470;BME280;41334;47.872;16.384;2023-05-20T13:37:05;99216.88;;;30.51;36.43
55470;BME280;41334;47.872;16.384;2023-05-20T13:42:07;99209.41;;;30.21;35.36
55470;BME280;41334;47.872;16.384;2023-05-20T13:47:08;99194.84;;;29.72;34.96
55470;BME280;41334;47.872;16.384;2023-05-20T13:52:11;99206.50;;;29.58;36.03
55470;BME280;41334;47.872;16.384;2023-05-20T13:57:13;99194.38;;;29.54;37.23
55470;BME280;41334;47.872;16.384;2023-05-20T14:02:15;99188.06;;;29.86;35.20
55470;BME280;41334;47.872;16.384;2023-05-20T14:07:17;99180.38;;;30.26;35.86
55470;BME280;41334;47.872;16.384;2023-05-20T14:12:19;99173.84;;;29.86;36.47
55470;BME280;41334;47.872;16.384;2023-05-20T14:17:23;99169.94;;;29.57;36.58
55470;BME280;41334;47.872;16.384;2023-05-20T14:22:26;99167.94;;;29.54;36.35
55470;BME280;41334;47.872;16.384;2023-05-20T14:27:29;99153.31;;;29.05;36.75
55470;BME280;41334;47.872;16.384;2023-05-20T14:32:30;99149.81;;;29.67;37.84
55470;BME280;41334;47.872;16.384;2023-05-20T14:37:32;99155.50;;;29.87;37.03
55470;BME280;41334;47.872;16.384;2023-05-20T14:42:35;99137.53;;;30.10;34.30
55470;BME280;41334;47.872;16.384;2023-05-20T14:47:37;99134.03;;;29.63;34.36
55470;BME280;41334;47.872;16.384;2023-05-20T14:52:40;99135.56;;;29.87;36.60
55470;BME280;41334;47.872;16.384;2023-05-20T14:57:42;99133.66;;;29.37;36.52
55470;BME280;41334;47.872;16.384;2023-05-20T15:02:44;99140.56;;;29.13;38.07
55470;BME280;41334;47.872;16.384;2023-05-20T15:07:46;99134.47;;;29.14;37.69
55470;BME280;41334;47.872;16.384;2023-05-20T15:12:48;99142.09;;;28.40;37.01
55470;BME280;41334;47.872;16.384;2023-05-20T15:17:51;99125.94;;;28.33;39.32
55470;BME280;41334;47.872;16.384;2023-05-20T15:22:53;99129.03;;;27.81;39.77
55470;BME280;41334;47.872;16.384;2023-05-20T15:27:55;99118.03;;;27.46;40.40
55470;BME280;41334;47.872;16.384;2023-05-20T15:32:57;99120.03;;;27.07;40.27
55470;BME280;41334;47.872;16.384;2023-05-20T15:37:59;99122.22;;;26.82;41.24
55470;BME280;41334;47.872;16.384;2023-05-20T15:43:01;99115.38;;;26.79;43.02
55470;BME280;41334;47.872;16.384;2023-05-20T15:48:03;99105.38;;;26.57;44.26
55470;BME280;41334;47.872;16.384;2023-05-20T15:53:06;99111.78;;;26.68;43.09
55470;BME280;41334;47.872;16.384;2023-05-20T15:58:08;99103.72;;;27.15;41.59
55470;BME280;41334;47.872;16.384;2023-05-20T16:03:10;99088.63;;;27.29;40.75
55470;BME280;41334;47.872;16.384;2023-05-20T16:08:12;99086.16;;;27.31;40.50
55470;BME280;41334;47.872;16.384;2023-05-20T16:13:14;99090.44;;;27.05;40.89
55470;BME280;41334;47.872;16.384;2023-05-20T16:18:16;99099.19;;;26.73;41.25
55470;BME280;41334;47.872;16.384;2023-05-20T16:23:18;99094.06;;;27.05;41.00
55470;BME280;41334;47.872;16.384;2023-05-20T16:28:20;99086.34;;;27.13;42.84
55470;BME280;41334;47.872;16.384;2023-05-20T16:33:23;99079.28;;;26.83;41.35
55470;BME280;41334;47.872;16.384;2023-05-20T16:38:25;99077.03;;;26.64;42.03
55470;BME280;41334;47.872;16.384;2023-05-20T16:43:26;99077.28;;;26.21;41.63
55470;BME280;41334;47.872;16.384;2023-05-20T16:48:28;99088.78;;;25.89;43.04
55470;BME280;41334;47.872;16.384;2023-05-20T16:53:30;99086.00;;;25.68;43.03
55470;BME280;41334;47.872;16.384;2023-05-20T16:58:32;99084.50;;;25.27;44.31
55470;BME280;41334;47.872;16.384;2023-05-20T17:03:34;99086.94;;;25.07;45.60
55470;BME280;41334;47.872;16.384;2023-05-20T17:08:36;99087.34;;;24.88;47.72
55470;BME280;41334;47.872;16.384;2023-05-20T17:13:38;99087.31;;;24.81;47.64
55470;BME280;41334;47.872;16.384;2023-05-20T17:18:42;99098.22;;;24.75;48.31
55470;BME280;41334;47.872;16.384;2023-05-20T17:23:43;99104.28;;;24.95;47.89
55470;BME280;41334;47.872;16.384;2023-05-20T17:28:46;99096.63;;;24.89;46.94
55470;BME280;41334;47.872;16.384;2023-05-20T17:33:47;99100.63;;;24.59;47.58
55470;BME280;41334;47.872;16.384;2023-05-20T17:38:50;99096.44;;;23.96;48.49
55470;BME280;41334;47.872;16.384;2023-05-20T17:43:52;99099.41;;;23.48;50.75
55470;BME280;41334;47.872;16.384;2023-05-20T17:48:53;99102.81;;;23.13;52.44
55470;BME280;41334;47.872;16.384;2023-05-20T17:53:57;99110.16;;;22.77;53.11
55470;BME280;41334;47.872;16.384;2023-05-20T17:58:59;99107.44;;;22.43;53.53
55470;BME280;41334;47.872;16.384;2023-05-20T18:04:01;99098.19;;;22.09;54.74
55470;BME280;41334;47.872;16.384;2023-05-20T18:09:06;99105.50;;;21.80;54.71
55470;BME280;41334;47.872;16.384;2023-05-20T18:14:08;99100.66;;;21.47;55.53
55470;BME280;41334;47.872;16.384;2023-05-20T18:19:10;99102.25;;;21.21;56.41
55470;BME280;41334;47.872;16.384;2023-05-20T18:24:12;99101.78;;;20.92;57.38
55470;BME280;41334;47.872;16.384;2023-05-20T18:29:16;99110.19;;;20.66;57.53
55470;BME280;41334;47.872;16.384;2023-05-20T18:34:18;99103.72;;;20.42;58.62
55470;BME280;41334;47.872;16.384;2023-05-20T18:39:20;99103.25;;;20.18;60.26
55470;BME280;41334;47.872;16.384;2023-05-20T18:44:22;99105.22;;;19.94;61.42
55470;BME280;41334;47.872;16.384;2023-05-20T18:49:24;99107.59;;;19.73;62.27
55470;BME280;41334;47.872;16.384;2023-05-20T18:54:26;99119.94;;;19.52;62.61
55470;BME280;41334;47.872;16.384;2023-05-20T18:59:27;99126.34;;;19.33;63.51
55470;BME280;41334;47.872;16.384;2023-05-20T19:04:29;99130.78;;;19.19;64.44
55470;BME280;41334;47.872;16.384;2023-05-20T19:09:32;99134.69;;;18.98;64.34
55470;BME280;41334;47.872;16.384;2023-05-20T19:14:33;99136.31;;;18.83;65.68
55470;BME280;41334;47.872;16.384;2023-05-20T19:19:35;99150.41;;;18.71;65.86
55470;BME280;41334;47.872;16.384;2023-05-20T19:24:37;99136.81;;;18.57;66.40
55470;BME280;41334;47.872;16.384;2023-05-20T19:29:39;99142.94;;;18.47;66.53
55470;BME280;41334;47.872;16.384;2023-05-20T19:34:41;99144.88;;;18.43;66.06
55470;BME280;41334;47.872;16.384;2023-05-20T19:39:44;99157.38;;;18.33;66.07
55470;BME280;41334;47.872;16.384;2023-05-20T19:44:46;99153.81;;;18.21;66.75
55470;BME280;41334;47.872;16.384;2023-05-20T19:49:48;99156.25;;;18.06;67.21
55470;BME280;41334;47.872;16.384;2023-05-20T19:54:50;99148.50;;;17.88;67.30
55470;BME280;41334;47.872;16.384;2023-05-20T19:59:51;99153.66;;;17.73;67.66
55470;BME280;41334;47.872;16.384;2023-05-20T20:04:54;99153.66;;;17.61;68.50
55470;BME280;41334;47.872;16.384;2023-05-20T20:09:56;99148.72;;;17.42;68.60
55470;BME280;41334;47.872;16.384;2023-05-20T20:14:58;99158.84;;;17.35;69.57
55470;BME280;41334;47.872;16.384;2023-05-20T20:20:01;99167.25;;;17.22;69.77
55470;BME280;41334;47.872;16.384;2023-05-20T20:25:04;99168.41;;;17.09;71.61
55470;BME280;41334;47.872;16.384;2023-05-20T20:30:07;99172.38;;;16.96;71.33
55470;BME280;41334;47.872;16.384;2023-05-20T20:35:09;99181.53;;;16.84;72.15
55470;BME280;41334;47.872;16.384;2023-05-20T20:40:11;99184.38;;;16.63;74.36
55470;BME280;41334;47.872;16.384;2023-05-20T20:45:14;99183.75;;;16.45;75.27
55470;BME280;41334;47.872;16.384;2023-05-20T20:50:16;99182.78;;;16.29;75.55
55470;BME280;41334;47.872;16.384;2023-05-20T20:55:18;99186.81;;;16.19;75.62
55470;BME280;41334;47.872;16.384;2023-05-20T21:00:20;99179.91;;;16.05;75.74
55470;BME280;41334;47.872;16.384;2023-05-20T21:05:24;99181.59;;;15.97;75.67
55470;BME280;41334;47.872;16.384;2023-05-20T21:10:27;99183.19;;;15.86;76.07
55470;BME280;41334;47.872;16.384;2023-05-20T21:15:30;99186.88;;;15.78;76.61
55470;BME280;41334;47.872;16.384;2023-05-20T21:20:32;99193.66;;;15.68;76.87
55470;BME280;41334;47.872;16.384;2023-05-20T21:25:33;99191.09;;;15.54;76.69
55470;BME280;41334;47.872;16.384;2023-05-20T21:30:36;99183.28;;;15.48;76.45
55470;BME280;41334;47.872;16.384;2023-05-20T21:35:38;99180.75;;;15.34;77.02
55470;BME280;41334;47.872;16.384;2023-05-20T21:40:40;99189.41;;;15.41;76.38
55470;BME280;41334;47.872;16.384;2023-05-20T21:45:42;99198.91;;;15.40;76.16
55470;BME280;41334;47.872;16.384;2023-05-20T21:50:43;99196.44;;;15.38;77.13
55470;BME280;41334;47.872;16.384;2023-05-20T21:55:45;99195.00;;;15.32;76.41
55470;BME280;41334;47.872;16.384;2023-05-20T22:00:47;99192.59;;;15.22;76.91
55470;BME280;41334;47.872;16.384;2023-05-20T22:05:49;99188.88;;;15.18;77.34
55470;BME280;41334;47.872;16.384;2023-05-20T22:10:51;99184.13;;;15.18;78.95
55470;BME280;41334;47.872;16.384;2023-05-20T22:15:53;99192.75;;;15.26;78.75
55470;BME280;41334;47.872;16.384;2023-05-20T22:20:55;99190.31;;;15.24;78.12
55470;BME280;41334;47.872;16.384;2023-05-20T22:26:00;99188.56;;;15.11;78.31
55470;BME280;41334;47.872;16.384;2023-05-20T22:31:02;99177.34;;;14.99;78.20
55470;BME280;41334;47.872;16.384;2023-05-20T22:36:05;99169.84;;;14.90;78.61
55470;BME280;41334;47.872;16.384;2023-05-20T22:41:07;99165.63;;;14.84;79.43
55470;BME280;41334;47.872;16.384;2023-05-20T22:46:09;99164.00;;;14.83;78.38
55470;BME280;41334;47.872;16.384;2023-05-20T22:51:11;99158.97;;;14.77;78.97
55470;BME280;41334;47.872;16.384;2023-05-20T22:56:14;99166.69;;;14.71;79.21
55470;BME280;41334;47.872;16.384;2023-05-20T23:01:16;99167.88;;;14.61;79.73
55470;BME280;41334;47.872;16.384;2023-05-20T23:06:18;99171.34;;;14.50;79.14
55470;BME280;41334;47.872;16.384;2023-05-20T23:11:20;99176.41;;;14.39;80.06
55470;BME280;41334;47.872;16.384;2023-05-20T23:16:22;99160.41;;;14.27;79.95
55470;BME280;41334;47.872;16.384;2023-05-20T23:21:26;99158.13;;;14.21;79.74
55470;BME280;41334;47.872;16.384;2023-05-20T23:26:29;99152.09;;;14.19;79.88
55470;BME280;41334;47.872;16.384;2023-05-20T23:31:31;99145.56;;;14.14;80.61
55470;BME280;41334;47.872;16.384;2023-05-20T23:36:34;99150.81;;;14.07;80.72
55470;BME280;41334;47.872;16.384;2023-05-20T23:41:36;99157.06;;;13.96;80.60
55470;BME280;41334;47.872;16.384;2023-05-20T23:46:37;99159.66;;;13.92;81.54
55470;BME280;41334;47.872;16.384;2023-05-20T23:51:39;99150.19;;;13.84;80.67
55470;BME280;41334;47.872;16.384;2023-05-20T23:56:41;99154.09;;;13.83;81.22
